Terminal Aerodrome Forecast
Issued by NWS

Home | Current Version | Previous Version | Text Only | Print | Product List | Glossary On
Versions: 1 2 3 4 5 6 7 8 9 10 11 12 13 14 15
000
FTUS44 KLIX 261900 AAA
TAFMSY
TAF AMD
KMSY 261937Z 2620/2718 VRB05KT P6SM SCT030 BKN040
     FM270400 22007KT P6SM FEW250
     FM271300 25004KT P6SM SCT020
     FM271700 26007KT P6SM SCT030 BKN035=

USA.gov is the U.S. government's official web portal to all federal, state and local government web resources and services.